createdAt,value
2022-09-28T00:01:10.615Z,83.62
2022-09-28T00:03:37.733Z,84.17
2022-09-28T00:06:07.478Z,85.34
2022-09-28T00:08:35.356Z,85.59
2022-09-28T00:11:03.642Z,86.14
2022-09-28T00:13:33.021Z,86.78
2022-09-28T00:16:04.719Z,86.93
2022-09-28T00:18:32.292Z,86.70
2022-09-28T00:21:02.534Z,86.41
2022-09-28T00:23:29.753Z,86.84
2022-09-28T00:25:56.762Z,87.75
2022-09-28T00:28:23.572Z,88.17
2022-09-28T00:30:55.524Z,87.78
2022-09-28T00:33:22.477Z,87.50
2022-09-28T00:35:58.324Z,87.85
2022-09-28T00:38:30.907Z,87.97
2022-09-28T00:40:57.920Z,88.07
2022-09-28T00:43:26.014Z,88.71
2022-09-28T00:46:15.943Z,88.91
2022-09-28T00:48:58.903Z,89.22
2022-09-28T00:51:27.124Z,88.65
2022-09-28T00:53:56.197Z,88.36
2022-09-28T00:56:28.337Z,87.68
2022-09-28T00:58:57.563Z,86.71
2022-09-28T01:01:24.730Z,86.68
2022-09-28T01:03:52.140Z,86.80
2022-09-28T01:06:24.557Z,86.58
2022-09-28T01:08:53.740Z,86.21
2022-09-28T01:11:22.176Z,86.13
2022-09-28T01:13:50.788Z,86.63
2022-09-28T01:16:27.043Z,87.28
2022-09-28T01:19:18.509Z,86.46
2022-09-28T01:22:14.681Z,86.16
2022-09-28T01:24:57.173Z,85.68
2022-09-28T01:27:38.384Z,85.05
2022-09-28T01:30:08.503Z,84.86
2022-09-28T01:33:01.489Z,83.81
2022-09-28T01:35:31.366Z,83.86
2022-09-28T01:38:04.169Z,83.59
2022-09-28T01:40:34.482Z,83.75
2022-09-28T01:43:06.443Z,83.30
2022-09-28T01:45:40.676Z,83.03
2022-09-28T01:48:10.871Z,82.73
2022-09-28T01:50:41.142Z,82.48
2022-09-28T01:53:51.522Z,82.56
2022-09-28T01:56:31.466Z,81.83
2022-09-28T01:59:13.585Z,81.15
2022-09-28T02:02:00.739Z,81.95
2022-09-28T02:04:36.637Z,82.60
2022-09-28T02:07:31.460Z,82.31
2022-09-28T02:10:13.090Z,82.50
2022-09-28T02:12:46.528Z,82.89
2022-09-28T02:15:32.147Z,83.45
2022-09-28T02:18:02.483Z,83.21
2022-09-28T02:20:34.458Z,82.69
2022-09-28T02:23:05.707Z,82.00
2022-09-28T02:25:43.801Z,82.40
2022-09-28T02:28:16.030Z,83.16
2022-09-28T02:30:45.122Z,84.44
2022-09-28T02:33:26.058Z,85.33
2022-09-28T02:35:55.609Z,86.57
2022-09-28T02:38:24.258Z,88.02
2022-09-28T02:41:04.632Z,88.91
2022-09-28T02:44:42.927Z,88.05
2022-09-28T02:47:15.835Z,86.88
2022-09-28T02:49:55.051Z,87.00
2022-09-28T02:52:50.406Z,86.75
2022-09-28T02:55:20.850Z,87.25
2022-09-28T02:57:57.020Z,86.21
2022-09-28T03:00:25.495Z,84.83
2022-09-28T03:03:04.510Z,84.75
2022-09-28T03:05:39.846Z,83.65
2022-09-28T03:08:19.740Z,83.05
2022-09-28T03:10:49.596Z,83.13
2022-09-28T03:13:18.212Z,82.60
2022-09-28T03:15:48.656Z,81.83
2022-09-28T03:18:17.667Z,81.34
2022-09-28T03:20:44.893Z,81.88
2022-09-28T03:23:29.950Z,82.38
2022-09-28T03:26:01.469Z,83.17
2022-09-28T03:28:29.859Z,83.29
2022-09-28T03:30:57.706Z,83.46
2022-09-28T03:33:24.865Z,83.44
2022-09-28T03:35:51.990Z,84.06
2022-09-28T03:38:20.491Z,85.07
2022-09-28T03:40:59.379Z,85.36
2022-09-28T03:43:31.183Z,85.41
2022-09-28T03:46:01.791Z,85.51
2022-09-28T03:48:35.784Z,85.82
2022-09-28T03:51:05.523Z,85.90
2022-09-28T03:53:33.469Z,85.39
2022-09-28T03:56:06.543Z,84.70
2022-09-28T03:58:34.246Z,83.58
2022-09-28T04:01:07.406Z,84.60
2022-09-28T04:03:35.779Z,85.15
2022-09-28T04:06:02.885Z,85.28
2022-09-28T04:08:30.324Z,86.35
2022-09-28T04:11:01.515Z,86.51
2022-09-28T04:13:30.068Z,87.31
2022-09-28T04:16:01.138Z,87.89
2022-09-28T04:18:31.298Z,86.61
2022-09-28T04:21:16.152Z,86.65
2022-09-28T04:23:54.360Z,86.71
2022-09-28T04:26:26.495Z,87.21
2022-09-28T04:29:12.798Z,87.74
2022-09-28T04:31:42.525Z,88.21
2022-09-28T04:34:09.550Z,88.01
2022-09-28T04:36:36.962Z,88.12
2022-09-28T04:39:05.476Z,87.72
2022-09-28T04:41:33.537Z,86.51
2022-09-28T04:44:01.093Z,86.00
2022-09-28T04:46:28.194Z,84.89
2022-09-28T04:49:27.474Z,84.17
2022-09-28T04:52:02.560Z,83.74
2022-09-28T04:54:29.395Z,83.71
2022-09-28T04:56:58.601Z,84.35
2022-09-28T04:59:26.458Z,83.67
2022-09-28T05:01:54.215Z,83.43
2022-09-28T05:04:25.573Z,83.29
2022-09-28T05:07:11.533Z,84.34
2022-09-28T05:09:38.787Z,83.98
2022-09-28T05:12:06.000Z,83.92
2022-09-28T05:14:33.034Z,83.37
2022-09-28T05:17:06.795Z,83.89
2022-09-28T05:19:40.911Z,83.30
2022-09-28T05:22:13.949Z,84.76
2022-09-28T05:24:46.417Z,83.58
2022-09-28T05:27:13.826Z,83.21
2022-09-28T05:29:41.267Z,82.82
2022-09-28T05:32:49.046Z,82.91
2022-09-28T05:35:29.701Z,82.39
2022-09-28T05:37:57.475Z,81.63
2022-09-28T05:40:24.445Z,80.88
2022-09-28T05:42:51.411Z,80.07
2022-09-28T05:45:18.410Z,79.12
2022-09-28T05:47:50.775Z,77.81
2022-09-28T05:50:21.098Z,77.24
2022-09-28T05:52:58.453Z,76.70
2022-09-28T05:55:28.302Z,75.23
2022-09-28T05:58:00.246Z,75.01
2022-09-28T06:00:28.409Z,74.37
2022-09-28T06:03:03.411Z,73.55
2022-09-28T06:05:39.418Z,73.31
2022-09-28T06:08:10.297Z,73.08
2022-09-28T06:10:39.468Z,73.39
2022-09-28T06:13:06.981Z,72.82
2022-09-28T06:15:35.382Z,71.45
2022-09-28T06:18:09.470Z,71.03
2022-09-28T06:20:44.048Z,70.98
2022-09-28T06:23:17.660Z,70.22
2022-09-28T06:25:45.757Z,69.98
2022-09-28T06:28:14.677Z,69.49
2022-09-28T06:30:42.826Z,67.99
2022-09-28T06:33:14.403Z,67.82
2022-09-28T06:35:43.648Z,68.28
2022-09-28T06:38:11.058Z,67.81
2022-09-28T06:40:38.486Z,67.92
2022-09-28T06:43:14.541Z,67.20
2022-09-28T06:46:00.200Z,66.21
2022-09-28T06:48:45.747Z,65.55
2022-09-28T06:51:17.439Z,66.35
2022-09-28T06:54:04.734Z,65.99
2022-09-28T06:56:40.761Z,66.21
2022-09-28T06:59:07.679Z,66.11
2022-09-28T07:01:36.276Z,67.09
2022-09-28T07:04:42.924Z,68.11
2022-09-28T07:07:40.620Z,66.53
2022-09-28T07:10:28.982Z,66.02
2022-09-28T07:13:46.470Z,66.10
2022-09-28T07:16:07.921Z,66.50
2022-09-28T07:18:35.689Z,66.61
2022-09-28T07:21:04.163Z,66.80
2022-09-28T07:23:32.239Z,67.19
2022-09-28T07:26:23.635Z,68.00
2022-09-28T07:29:09.179Z,68.95
2022-09-28T07:32:00.223Z,69.60
2022-09-28T07:34:44.051Z,70.58
2022-09-28T07:37:19.221Z,70.13
2022-09-28T07:40:06.379Z,69.16
2022-09-28T07:42:38.422Z,67.04
2022-09-28T07:45:07.065Z,65.72
2022-09-28T07:47:35.245Z,65.10
2022-09-28T07:50:21.559Z,64.35
2022-09-28T07:53:02.258Z,63.21
2022-09-28T07:55:32.179Z,61.33
2022-09-28T07:58:10.904Z,58.84
2022-09-28T08:01:08.074Z,59.14
2022-09-28T08:03:35.617Z,57.52
2022-09-28T08:06:07.197Z,58.23
2022-09-28T08:08:35.481Z,58.17
2022-09-28T08:11:03.063Z,55.55
2022-09-28T08:13:48.872Z,55.18
2022-09-28T08:19:14.485Z,54.45
2022-09-28T08:21:47.305Z,52.69
2022-09-28T08:24:16.616Z,51.97
2022-09-28T08:26:45.795Z,51.40
2022-09-28T08:29:16.974Z,51.62
2022-09-28T08:31:43.759Z,50.39
2022-09-28T08:34:30.738Z,50.12
2022-09-28T08:37:09.769Z,50.30
2022-09-28T08:39:57.653Z,50.92
2022-09-28T08:42:48.584Z,51.83
2022-09-28T08:45:41.823Z,51.62
2022-09-28T08:49:13.307Z,51.53
2022-09-28T08:52:23.956Z,51.04
2022-09-28T08:55:39.445Z,50.37
2022-09-28T08:58:14.950Z,50.02
2022-09-28T09:00:54.215Z,49.70
2022-09-28T09:03:36.054Z,49.80
2022-09-28T09:06:44.330Z,48.49
2022-09-28T09:09:35.876Z,48.84
2022-09-28T09:12:23.109Z,50.46
2022-09-28T09:15:32.566Z,49.69
2022-09-28T09:18:44.041Z,48.84
2022-09-28T09:22:01.201Z,49.37
2022-09-28T09:24:37.690Z,49.04
2022-09-28T09:27:18.247Z,48.41
2022-09-28T09:29:53.621Z,48.26
2022-09-28T09:32:45.433Z,48.07
2022-09-28T09:35:39.316Z,48.65
2022-09-28T09:38:53.652Z,47.57
2022-09-28T09:41:52.135Z,47.62
2022-09-28T09:44:52.968Z,47.86
2022-09-28T09:48:04.674Z,47.51
2022-09-28T09:50:45.999Z,47.96
2022-09-28T09:53:24.401Z,48.30
2022-09-28T09:56:01.608Z,47.29
2022-09-28T09:58:52.283Z,46.49
2022-09-28T10:01:47.477Z,46.38
2022-09-28T10:04:57.528Z,46.54
2022-09-28T10:07:43.573Z,46.43
2022-09-28T10:10:33.722Z,46.54
2022-09-28T10:13:08.969Z,47.69
2022-09-28T10:15:36.772Z,47.04
2022-09-28T10:18:32.617Z,47.68
2022-09-28T10:21:37.583Z,46.33
2022-09-28T10:24:41.418Z,46.44
2022-09-28T10:27:14.952Z,45.98
2022-09-28T10:29:51.182Z,45.84
2022-09-28T10:32:25.121Z,43.98
2022-09-28T10:35:12.222Z,44.23
2022-09-28T10:37:59.791Z,43.61
2022-09-28T10:41:13.484Z,43.93
2022-09-28T10:44:10.927Z,43.14
2022-09-28T10:46:55.465Z,41.18
2022-09-28T10:49:25.157Z,41.51
2022-09-28T10:51:57.448Z,40.93
2022-09-28T10:54:32.636Z,40.73
2022-09-28T10:57:00.967Z,40.55
2022-09-28T10:59:48.056Z,39.97
2022-09-28T11:02:47.333Z,41.41
2022-09-28T11:05:30.294Z,40.92
2022-09-28T11:08:02.765Z,40.83
2022-09-28T11:10:38.211Z,40.85
2022-09-28T11:13:12.635Z,40.01
2022-09-28T11:15:44.492Z,39.22
2022-09-28T11:18:20.070Z,39.07
2022-09-28T11:20:47.223Z,38.48
2022-09-28T11:23:21.681Z,36.27
2022-09-28T11:26:04.431Z,35.81
2022-09-28T11:28:34.998Z,36.21
2022-09-28T11:31:08.949Z,36.24
2022-09-28T11:33:47.791Z,36.24
2022-09-28T11:36:35.384Z,36.45
2022-09-28T11:39:18.200Z,36.22
2022-09-28T11:42:35.645Z,35.33
2022-09-28T11:45:44.385Z,34.57
2022-09-28T11:48:18.921Z,35.01
2022-09-28T11:51:00.375Z,35.42
2022-09-28T11:53:42.581Z,35.42
2022-09-28T11:56:27.467Z,34.97
2022-09-28T11:59:01.107Z,34.43
2022-09-28T12:01:48.651Z,34.92
2022-09-28T12:04:41.135Z,34.45
2022-09-28T12:07:19.638Z,34.61
2022-09-28T12:10:09.511Z,33.78
2022-09-28T12:12:48.676Z,34.05
2022-09-28T12:15:21.596Z,33.65
2022-09-28T12:17:54.447Z,34.44
2022-09-28T12:20:32.653Z,34.30
2022-09-28T12:22:59.386Z,33.92
2022-09-28T12:25:28.903Z,34.44
2022-09-28T12:28:13.562Z,34.17
2022-09-28T12:30:43.859Z,34.48
2022-09-28T12:33:13.204Z,34.00
2022-09-28T12:35:58.428Z,33.65
2022-09-28T12:38:27.963Z,33.75
2022-09-28T12:41:11.617Z,33.20
2022-09-28T12:44:08.857Z,33.05
2022-09-28T12:46:48.955Z,32.89
2022-09-28T12:50:27.314Z,32.87
2022-09-28T12:52:45.895Z,32.40
2022-09-28T12:55:25.040Z,33.26
2022-09-28T12:58:08.784Z,33.66
2022-09-28T13:01:07.775Z,33.14
2022-09-28T13:04:13.391Z,33.32
2022-09-28T13:06:43.369Z,34.12
2022-09-28T13:09:24.708Z,34.75
2022-09-28T13:12:22.680Z,35.20
2022-09-28T13:15:06.029Z,34.92
2022-09-28T13:17:46.734Z,34.50
2022-09-28T13:20:25.672Z,34.89
2022-09-28T13:23:19.098Z,35.37
2022-09-28T13:26:01.536Z,35.21
2022-09-28T13:28:29.621Z,35.79
2022-09-28T13:33:35.812Z,34.64
2022-09-28T13:36:22.587Z,34.58
2022-09-28T13:38:49.877Z,34.99
2022-09-28T13:41:29.843Z,34.62
2022-09-28T13:44:16.769Z,34.71
2022-09-28T13:46:49.477Z,34.99
2022-09-28T13:49:54.059Z,34.92
2022-09-28T13:52:48.251Z,34.93
2022-09-28T13:55:48.395Z,34.60
2022-09-28T15:02:56.662Z,35.77
2022-09-28T15:08:44.098Z,35.74
2022-09-28T15:11:18.132Z,35.92
2022-09-28T15:13:44.987Z,36.66
2022-09-28T15:16:15.555Z,37.52
2022-09-28T15:19:04.091Z,37.35
2022-09-28T15:21:37.728Z,37.59
2022-09-28T15:24:33.986Z,37.73
2022-09-28T15:27:02.607Z,37.64
2022-09-28T15:29:33.699Z,38.26
2022-09-28T15:32:02.121Z,38.33
2022-09-28T15:34:52.807Z,38.71
2022-09-28T15:37:22.971Z,39.01
2022-09-28T15:39:51.864Z,39.13
2022-09-28T15:42:19.376Z,40.02
2022-09-28T15:45:01.426Z,40.12
2022-09-28T15:47:31.871Z,39.83
2022-09-28T15:49:58.766Z,40.87
2022-09-28T15:52:30.669Z,41.17
2022-09-28T15:54:57.698Z,41.83
2022-09-28T15:57:33.619Z,42.56
2022-09-28T16:00:01.139Z,42.63
2022-09-28T16:02:28.066Z,43.80
2022-09-28T16:04:59.078Z,43.99
2022-09-28T16:07:38.534Z,45.08
2022-09-28T16:10:11.340Z,45.62
2022-09-28T16:12:39.111Z,44.83
2022-09-28T16:15:07.696Z,45.87
2022-09-28T16:17:35.392Z,46.12
2022-09-28T16:20:17.611Z,46.08
2022-09-28T16:22:45.255Z,46.84
2022-09-28T16:25:24.220Z,46.16
2022-09-28T16:27:53.455Z,46.23
2022-09-28T16:30:25.982Z,45.56
2022-09-28T16:33:05.218Z,45.97
2022-09-28T16:35:34.375Z,47.39
2022-09-28T16:38:19.879Z,47.38
2022-09-28T16:40:56.382Z,48.10
2022-09-28T16:43:28.667Z,47.92
2022-09-28T16:46:00.761Z,47.66
2022-09-28T16:48:30.293Z,47.44
2022-09-28T16:50:57.935Z,47.69
2022-09-28T16:53:43.431Z,49.09
2022-09-28T16:56:11.526Z,49.05
2022-09-28T16:58:39.192Z,50.23
2022-09-28T17:01:09.700Z,50.85
2022-09-28T17:03:36.731Z,50.57
2022-09-28T17:06:06.271Z,51.25
2022-09-28T17:08:35.501Z,51.24
2022-09-28T17:11:15.540Z,52.54
2022-09-28T17:13:46.016Z,52.39
2022-09-28T17:16:32.678Z,53.62
2022-09-28T17:19:19.448Z,54.18
2022-09-28T17:21:48.272Z,54.98
2022-09-28T17:24:15.183Z,55.33
2022-09-28T17:26:44.509Z,55.64
2022-09-28T17:29:16.876Z,56.09
2022-09-28T17:31:45.408Z,56.72
2022-09-28T17:34:16.293Z,57.26
2022-09-28T17:36:44.835Z,56.53
2022-09-28T17:39:16.850Z,56.72
2022-09-28T17:41:43.731Z,56.93
2022-09-28T17:44:11.170Z,56.34
2022-09-28T17:46:40.772Z,56.85
2022-09-28T17:49:11.658Z,56.65
2022-09-28T17:51:38.778Z,57.71
2022-09-28T17:54:08.094Z,57.30
2022-09-28T17:56:39.056Z,58.13
2022-09-28T17:59:10.272Z,57.04
2022-09-28T18:01:39.313Z,55.75
2022-09-28T18:04:08.845Z,54.45
2022-09-28T18:06:39.418Z,55.04
2022-09-28T18:09:06.313Z,54.59
2022-09-28T18:11:33.798Z,54.88
2022-09-28T18:14:21.606Z,55.73
2022-09-28T18:16:48.653Z,55.75
2022-09-28T18:19:15.537Z,55.98
2022-09-28T18:21:42.466Z,57.26
2022-09-28T18:24:09.275Z,56.55
2022-09-28T18:26:39.517Z,56.54
2022-09-28T18:29:07.441Z,56.69
2022-09-28T18:31:34.363Z,56.31
2022-09-28T18:34:02.373Z,56.92
2022-09-28T18:36:33.252Z,56.38
2022-09-28T18:39:01.486Z,58.00
2022-09-28T18:41:29.369Z,57.36
2022-09-28T18:44:00.931Z,58.01
2022-09-28T18:46:36.382Z,58.16
2022-09-28T18:49:04.609Z,59.15
2022-09-28T18:51:31.406Z,59.17
2022-09-28T18:53:58.227Z,59.37
2022-09-28T18:56:25.630Z,59.33
2022-09-28T18:58:53.630Z,60.53
2022-09-28T19:01:30.331Z,61.08
2022-09-28T19:04:06.263Z,61.47
2022-09-28T19:06:37.393Z,61.23
2022-09-28T19:09:05.855Z,61.71
2022-09-28T19:11:32.889Z,61.22
2022-09-28T19:13:59.823Z,61.55
2022-09-28T19:16:28.770Z,61.17
2022-09-28T19:18:57.359Z,61.32
2022-09-28T19:21:24.593Z,61.21
2022-09-28T19:23:54.438Z,61.10
2022-09-28T19:26:27.525Z,61.33
2022-09-28T19:28:56.715Z,60.98
2022-09-28T19:31:26.591Z,61.14
2022-09-28T19:33:53.433Z,60.33
2022-09-28T19:36:23.700Z,60.47
2022-09-28T19:38:51.993Z,61.49
2022-09-28T19:41:43.070Z,62.87
2022-09-28T19:44:16.121Z,62.18
2022-09-28T19:46:43.499Z,62.66
2022-09-28T19:49:13.996Z,62.74
2022-09-28T19:52:01.662Z,63.40
2022-09-28T19:54:35.559Z,63.80
2022-09-28T19:57:08.748Z,64.38
2022-09-28T19:59:37.333Z,63.51
2022-09-28T20:02:21.506Z,63.15
2022-09-28T20:04:50.109Z,62.69
2022-09-28T20:07:17.390Z,61.84
2022-09-28T20:09:44.232Z,61.63
2022-09-28T20:12:12.363Z,61.69
2022-09-28T20:14:42.612Z,62.13
2022-09-28T20:17:09.939Z,61.82
2022-09-28T20:19:38.546Z,61.30
2022-09-28T20:22:05.678Z,60.69
2022-09-28T20:24:33.122Z,60.12
2022-09-28T20:27:01.442Z,59.63
2022-09-28T20:29:28.671Z,59.83
2022-09-28T20:31:55.750Z,59.58
2022-09-28T20:34:22.647Z,60.48
2022-09-28T20:36:49.526Z,60.18
2022-09-28T20:39:16.578Z,61.15
2022-09-28T20:41:43.520Z,60.95
2022-09-28T20:44:10.578Z,61.59
2022-09-28T20:46:38.321Z,61.94
2022-09-28T20:49:07.082Z,62.25
2022-09-28T20:51:36.315Z,62.87
2022-09-28T20:54:03.188Z,63.07
2022-09-28T20:56:37.512Z,62.78
2022-09-28T20:59:09.950Z,63.17
2022-09-28T21:01:37.143Z,63.62
2022-09-28T21:04:07.751Z,64.46
2022-09-28T21:06:37.280Z,65.49
2022-09-28T21:09:05.835Z,65.39
2022-09-28T21:11:35.646Z,66.60
2022-09-28T21:14:05.752Z,67.26
2022-09-28T21:16:33.901Z,67.52
2022-09-28T21:19:03.152Z,67.64
2022-09-28T21:21:30.075Z,67.17
2022-09-28T21:23:58.097Z,65.47
2022-09-28T21:26:28.549Z,65.82
2022-09-28T21:29:00.315Z,64.83
2022-09-28T21:31:30.505Z,64.46
2022-09-28T21:33:57.731Z,65.45
2022-09-28T21:36:25.695Z,65.32
2022-09-28T21:38:55.120Z,64.95
2022-09-28T21:41:22.578Z,64.79
2022-09-28T21:43:49.431Z,65.56
2022-09-28T21:46:17.618Z,65.87
2022-09-28T21:48:44.736Z,66.08
2022-09-28T21:51:14.695Z,66.50
2022-09-28T21:53:41.636Z,67.65
2022-09-28T21:56:12.559Z,66.56
2022-09-28T21:58:40.139Z,67.18
2022-09-28T22:01:15.439Z,66.86
2022-09-28T22:03:44.089Z,67.24
2022-09-28T22:06:11.814Z,67.88
2022-09-28T22:08:39.495Z,67.07
2022-09-28T22:11:12.569Z,67.87
2022-09-28T22:13:42.491Z,68.94
2022-09-28T22:16:10.819Z,68.76
2022-09-28T22:18:37.873Z,69.47
2022-09-28T22:21:06.501Z,70.01
2022-09-28T22:23:34.487Z,68.62
2022-09-28T22:26:05.257Z,68.99
2022-09-28T22:28:32.075Z,69.07
2022-09-28T22:30:59.428Z,69.48
2022-09-28T22:33:27.343Z,70.43
2022-09-28T22:35:56.858Z,69.87
2022-09-28T22:38:27.405Z,69.71
2022-09-28T22:40:56.253Z,69.29
2022-09-28T22:43:25.109Z,68.43
2022-09-28T22:46:03.389Z,68.38
2022-09-28T22:48:30.591Z,68.46
2022-09-28T22:50:57.416Z,68.56
2022-09-28T22:53:24.456Z,69.24
2022-09-28T22:55:51.300Z,69.65
2022-09-28T22:58:18.220Z,70.17
2022-09-28T23:00:45.061Z,70.50
2022-09-28T23:03:14.242Z,69.23
2022-09-28T23:05:41.256Z,70.25
2022-09-28T23:08:08.166Z,71.49
2022-09-28T23:10:34.964Z,72.01
2022-09-28T23:13:01.787Z,71.88
2022-09-28T23:15:29.025Z,71.37
2022-09-28T23:17:55.891Z,71.27
2022-09-28T23:20:23.738Z,71.03
2022-09-28T23:22:50.648Z,70.23
2022-09-28T23:25:18.707Z,70.29
2022-09-28T23:27:50.128Z,69.00
2022-09-28T23:30:19.187Z,69.40
2022-09-28T23:32:46.367Z,70.02
2022-09-28T23:35:14.225Z,70.80
2022-09-28T23:37:41.014Z,70.96
2022-09-28T23:40:08.154Z,70.60
2022-09-28T23:42:35.532Z,71.14
2022-09-28T23:45:02.423Z,71.63
2022-09-28T23:47:30.380Z,71.94
2022-09-28T23:49:57.193Z,72.52
2022-09-28T23:52:24.081Z,72.25
2022-09-28T23:54:50.934Z,72.64
2022-09-28T23:57:17.844Z,72.32
2022-09-28T23:59:44.819Z,71.62
